sensor_id;sensor_type;location;lat;lon;timestamp;P1;durP1;ratioP1;P2;durP2;ratioP2
15915;SDS011;8057;47.830;-3.870;2022-07-09T00:03:36;3.30;;;3.00;;
15915;SDS011;8057;47.830;-3.870;2022-07-09T00:07:45;3.47;;;3.03;;
15915;SDS011;8057;47.830;-3.870;2022-07-09T00:11:55;3.00;;;2.80;;
15915;SDS011;8057;47.830;-3.870;2022-07-09T00:16:04;3.83;;;2.80;;
15915;SDS011;8057;47.830;-3.870;2022-07-09T00:20:14;3.23;;;2.90;;
15915;SDS011;8057;47.830;-3.870;2022-07-09T00:24:22;2.67;;;2.47;;
15915;SDS011;8057;47.830;-3.870;2022-07-09T00:28:33;3.50;;;2.90;;
15915;SDS011;8057;47.830;-3.870;2022-07-09T00:32:42;2.87;;;2.60;;
15915;SDS011;8057;47.830;-3.870;2022-07-09T00:36:51;3.33;;;2.90;;
15915;SDS011;8057;47.830;-3.870;2022-07-09T00:40:59;3.40;;;2.70;;
15915;SDS011;8057;47.830;-3.870;2022-07-09T00:45:10;3.70;;;3.17;;
15915;SDS011;8057;47.830;-3.870;2022-07-09T00:49:19;3.27;;;2.97;;
15915;SDS011;8057;47.830;-3.870;2022-07-09T00:53:28;3.33;;;3.03;;
15915;SDS011;8057;47.830;-3.870;2022-07-09T00:57:37;3.50;;;3.20;;
15915;SDS011;8057;47.830;-3.870;2022-07-09T01:01:48;3.23;;;3.03;;
15915;SDS011;8057;47.830;-3.870;2022-07-09T01:05:57;3.47;;;2.87;;
15915;SDS011;8057;47.830;-3.870;2022-07-09T01:10:07;3.77;;;3.13;;
15915;SDS011;8057;47.830;-3.870;2022-07-09T01:14:16;5.10;;;3.27;;
15915;SDS011;8057;47.830;-3.870;2022-07-09T01:18:27;3.83;;;2.40;;
15915;SDS011;8057;47.830;-3.870;2022-07-09T01:22:38;3.70;;;3.33;;
15915;SDS011;8057;47.830;-3.870;2022-07-09T01:26:48;3.30;;;3.00;;
15915;SDS011;8057;47.830;-3.870;2022-07-09T01:30:57;3.93;;;2.90;;
15915;SDS011;8057;47.830;-3.870;2022-07-09T01:35:07;4.00;;;2.83;;
15915;SDS011;8057;47.830;-3.870;2022-07-09T01:39:17;2.90;;;2.57;;
15915;SDS011;8057;47.830;-3.870;2022-07-09T01:43:26;3.17;;;2.90;;
15915;SDS011;8057;47.830;-3.870;2022-07-09T01:47:35;2.83;;;2.53;;
15915;SDS011;8057;47.830;-3.870;2022-07-09T01:51:44;3.20;;;2.73;;
15915;SDS011;8057;47.830;-3.870;2022-07-09T01:55:54;3.23;;;2.93;;
15915;SDS011;8057;47.830;-3.870;2022-07-09T02:00:04;4.43;;;2.40;;
15915;SDS011;8057;47.830;-3.870;2022-07-09T02:04:14;4.03;;;2.93;;
15915;SDS011;8057;47.830;-3.870;2022-07-09T02:08:23;3.83;;;3.30;;
15915;SDS011;8057;47.830;-3.870;2022-07-09T02:12:34;3.60;;;3.00;;
15915;SDS011;8057;47.830;-3.870;2022-07-09T02:16:43;3.43;;;3.13;;
15915;SDS011;8057;47.830;-3.870;2022-07-09T02:20:52;3.53;;;3.23;;
15915;SDS011;8057;47.830;-3.870;2022-07-09T02:25:03;3.37;;;3.17;;
15915;SDS011;8057;47.830;-3.870;2022-07-09T02:29:13;4.83;;;3.33;;
15915;SDS011;8057;47.830;-3.870;2022-07-09T02:33:22;3.33;;;3.03;;
15915;SDS011;8057;47.830;-3.870;2022-07-09T02:37:37;3.10;;;2.80;;
15915;SDS011;8057;47.830;-3.870;2022-07-09T02:41:46;3.47;;;3.20;;
15915;SDS011;8057;47.830;-3.870;2022-07-09T02:45:56;3.23;;;2.93;;
15915;SDS011;8057;47.830;-3.870;2022-07-09T02:50:05;3.60;;;3.27;;
15915;SDS011;8057;47.830;-3.870;2022-07-09T02:54:15;3.50;;;3.20;;
15915;SDS011;8057;47.830;-3.870;2022-07-09T02:58:24;3.60;;;3.03;;
15915;SDS011;8057;47.830;-3.870;2022-07-09T03:02:34;3.93;;;3.10;;
15915;SDS011;8057;47.830;-3.870;2022-07-09T03:06:43;3.67;;;3.37;;
15915;SDS011;8057;47.830;-3.870;2022-07-09T03:10:52;3.83;;;3.37;;
15915;SDS011;8057;47.830;-3.870;2022-07-09T03:15:00;5.90;;;4.17;;
15915;SDS011;8057;47.830;-3.870;2022-07-09T03:19:11;4.23;;;3.90;;
15915;SDS011;8057;47.830;-3.870;2022-07-09T03:23:20;4.43;;;4.03;;
15915;SDS011;8057;47.830;-3.870;2022-07-09T03:27:29;4.17;;;3.63;;
15915;SDS011;8057;47.830;-3.870;2022-07-09T03:31:38;3.80;;;3.50;;
15915;SDS011;8057;47.830;-3.870;2022-07-09T03:35:48;4.73;;;4.33;;
15915;SDS011;8057;47.830;-3.870;2022-07-09T03:39:57;5.60;;;4.50;;
15915;SDS011;8057;47.830;-3.870;2022-07-09T03:44:06;5.13;;;4.27;;
15915;SDS011;8057;47.830;-3.870;2022-07-09T03:48:15;4.17;;;3.83;;
15915;SDS011;8057;47.830;-3.870;2022-07-09T03:52:25;4.57;;;4.10;;
15915;SDS011;8057;47.830;-3.870;2022-07-09T03:56:34;4.47;;;3.87;;
15915;SDS011;8057;47.830;-3.870;2022-07-09T04:00:43;4.63;;;4.00;;
15915;SDS011;8057;47.830;-3.870;2022-07-09T04:04:51;4.30;;;4.00;;
15915;SDS011;8057;47.830;-3.870;2022-07-09T04:09:04;4.60;;;4.00;;
15915;SDS011;8057;47.830;-3.870;2022-07-09T04:13:13;4.03;;;3.50;;
15915;SDS011;8057;47.830;-3.870;2022-07-09T04:17:22;4.93;;;4.20;;
15915;SDS011;8057;47.830;-3.870;2022-07-09T04:21:30;4.03;;;3.73;;
15915;SDS011;8057;47.830;-3.870;2022-07-09T04:25:41;4.67;;;3.80;;
15915;SDS011;8057;47.830;-3.870;2022-07-09T04:29:50;4.20;;;3.90;;
15915;SDS011;8057;47.830;-3.870;2022-07-09T04:33:59;7.37;;;4.50;;
15915;SDS011;8057;47.830;-3.870;2022-07-09T04:38:07;7.53;;;4.10;;
15915;SDS011;8057;47.830;-3.870;2022-07-09T04:42:18;4.60;;;4.20;;
15915;SDS011;8057;47.830;-3.870;2022-07-09T04:46:27;4.53;;;3.83;;
15915;SDS011;8057;47.830;-3.870;2022-07-09T04:50:37;5.47;;;3.70;;
15915;SDS011;8057;47.830;-3.870;2022-07-09T04:54:46;4.67;;;4.17;;
15915;SDS011;8057;47.830;-3.870;2022-07-09T04:58:57;5.10;;;3.67;;
15915;SDS011;8057;47.830;-3.870;2022-07-09T05:03:07;4.37;;;3.97;;
15915;SDS011;8057;47.830;-3.870;2022-07-09T05:07:16;3.60;;;3.30;;
15915;SDS011;8057;47.830;-3.870;2022-07-09T05:11:25;3.53;;;3.23;;
15915;SDS011;8057;47.830;-3.870;2022-07-09T05:15:35;4.23;;;3.83;;
15915;SDS011;8057;47.830;-3.870;2022-07-09T05:19:44;4.03;;;3.30;;
15915;SDS011;8057;47.830;-3.870;2022-07-09T05:23:53;4.20;;;3.43;;
15915;SDS011;8057;47.830;-3.870;2022-07-09T05:28:02;3.77;;;3.47;;
15915;SDS011;8057;47.830;-3.870;2022-07-09T05:32:12;4.00;;;3.67;;
15915;SDS011;8057;47.830;-3.870;2022-07-09T05:36:21;3.53;;;3.23;;
15915;SDS011;8057;47.830;-3.870;2022-07-09T05:40:30;3.77;;;3.27;;
15915;SDS011;8057;47.830;-3.870;2022-07-09T05:44:39;3.50;;;3.27;;
15915;SDS011;8057;47.830;-3.870;2022-07-09T05:48:49;3.60;;;3.30;;
15915;SDS011;8057;47.830;-3.870;2022-07-09T05:52:58;5.07;;;3.07;;
15915;SDS011;8057;47.830;-3.870;2022-07-09T05:57:07;5.07;;;2.80;;
15915;SDS011;8057;47.830;-3.870;2022-07-09T06:01:16;5.50;;;3.57;;
15915;SDS011;8057;47.830;-3.870;2022-07-09T06:05:33;3.27;;;2.97;;
15915;SDS011;8057;47.830;-3.870;2022-07-09T06:09:42;3.43;;;3.20;;
15915;SDS011;8057;47.830;-3.870;2022-07-09T06:13:51;3.33;;;3.00;;
15915;SDS011;8057;47.830;-3.870;2022-07-09T06:18:00;3.07;;;2.57;;
15915;SDS011;8057;47.830;-3.870;2022-07-09T06:22:10;3.00;;;2.80;;
15915;SDS011;8057;47.830;-3.870;2022-07-09T06:26:19;2.77;;;2.57;;
15915;SDS011;8057;47.830;-3.870;2022-07-09T06:30:29;2.53;;;2.33;;
15915;SDS011;8057;47.830;-3.870;2022-07-09T06:34:38;2.63;;;2.43;;
15915;SDS011;8057;47.830;-3.870;2022-07-09T06:38:48;2.93;;;2.20;;
15915;SDS011;8057;47.830;-3.870;2022-07-09T06:43:14;2.50;;;2.30;;
15915;SDS011;8057;47.830;-3.870;2022-07-09T06:47:23;2.30;;;2.10;;
15915;SDS011;8057;47.830;-3.870;2022-07-09T06:51:32;3.23;;;2.70;;
15915;SDS011;8057;47.830;-3.870;2022-07-09T06:55:42;3.07;;;2.30;;
15915;SDS011;8057;47.830;-3.870;2022-07-09T06:59:52;3.10;;;2.30;;
15915;SDS011;8057;47.830;-3.870;2022-07-09T07:04:00;2.10;;;1.87;;
15915;SDS011;8057;47.830;-3.870;2022-07-09T07:08:09;2.13;;;1.93;;
15915;SDS011;8057;47.830;-3.870;2022-07-09T07:12:19;2.40;;;1.90;;
15915;SDS011;8057;47.830;-3.870;2022-07-09T07:16:28;2.50;;;1.93;;
15915;SDS011;8057;47.830;-3.870;2022-07-09T07:20:37;2.43;;;2.23;;
15915;SDS011;8057;47.830;-3.870;2022-07-09T07:24:46;2.40;;;2.20;;
15915;SDS011;8057;47.830;-3.870;2022-07-09T07:28:56;2.47;;;1.67;;
15915;SDS011;8057;47.830;-3.870;2022-07-09T07:33:05;3.20;;;2.17;;
15915;SDS011;8057;47.830;-3.870;2022-07-09T07:37:14;2.30;;;2.10;;
15915;SDS011;8057;47.830;-3.870;2022-07-09T07:41:23;2.20;;;2.03;;
15915;SDS011;8057;47.830;-3.870;2022-07-09T07:45:33;3.20;;;1.80;;
15915;SDS011;8057;47.830;-3.870;2022-07-09T07:49:42;2.17;;;1.97;;
15915;SDS011;8057;47.830;-3.870;2022-07-09T07:53:50;2.10;;;1.90;;
15915;SDS011;8057;47.830;-3.870;2022-07-09T07:57:59;1.70;;;1.60;;
15915;SDS011;8057;47.830;-3.870;2022-07-09T08:02:10;1.50;;;1.40;;
15915;SDS011;8057;47.830;-3.870;2022-07-09T08:06:19;1.67;;;1.57;;
15915;SDS011;8057;47.830;-3.870;2022-07-09T08:10:28;1.70;;;1.60;;
15915;SDS011;8057;47.830;-3.870;2022-07-09T08:14:41;1.87;;;1.77;;
15915;SDS011;8057;47.830;-3.870;2022-07-09T08:18:51;2.27;;;1.53;;
15915;SDS011;8057;47.830;-3.870;2022-07-09T08:23:00;2.60;;;1.47;;
15915;SDS011;8057;47.830;-3.870;2022-07-09T08:27:09;2.67;;;1.67;;
15915;SDS011;8057;47.830;-3.870;2022-07-09T08:31:19;1.50;;;1.40;;
15915;SDS011;8057;47.830;-3.870;2022-07-09T08:35:30;1.77;;;1.67;;
15915;SDS011;8057;47.830;-3.870;2022-07-09T08:39:38;2.17;;;1.97;;
15915;SDS011;8057;47.830;-3.870;2022-07-09T08:43:49;2.40;;;1.73;;
15915;SDS011;8057;47.830;-3.870;2022-07-09T08:47:58;1.93;;;1.73;;
15915;SDS011;8057;47.830;-3.870;2022-07-09T08:52:10;1.73;;;1.40;;
15915;SDS011;8057;47.830;-3.870;2022-07-09T08:56:20;2.40;;;1.70;;
15915;SDS011;8057;47.830;-3.870;2022-07-09T09:00:29;1.80;;;1.70;;
15915;SDS011;8057;47.830;-3.870;2022-07-09T09:04:39;2.63;;;1.50;;
15915;SDS011;8057;47.830;-3.870;2022-07-09T09:08:52;2.03;;;1.30;;
15915;SDS011;8057;47.830;-3.870;2022-07-09T09:13:02;1.53;;;1.30;;
15915;SDS011;8057;47.830;-3.870;2022-07-09T09:17:11;4.53;;;1.80;;
15915;SDS011;8057;47.830;-3.870;2022-07-09T09:21:20;1.80;;;1.30;;
15915;SDS011;8057;47.830;-3.870;2022-07-09T09:25:31;2.37;;;1.50;;
15915;SDS011;8057;47.830;-3.870;2022-07-09T09:29:49;2.50;;;1.40;;
15915;SDS011;8057;47.830;-3.870;2022-07-09T09:34:09;2.47;;;1.70;;
15915;SDS011;8057;47.830;-3.870;2022-07-09T09:38:22;1.50;;;1.40;;
15915;SDS011;8057;47.830;-3.870;2022-07-09T09:42:37;2.67;;;1.30;;
15915;SDS011;8057;47.830;-3.870;2022-07-09T09:46:49;1.67;;;1.13;;
15915;SDS011;8057;47.830;-3.870;2022-07-09T09:50:57;1.60;;;1.50;;
15915;SDS011;8057;47.830;-3.870;2022-07-09T09:55:09;1.70;;;1.10;;
15915;SDS011;8057;47.830;-3.870;2022-07-09T09:59:20;1.40;;;1.30;;
15915;SDS011;8057;47.830;-3.870;2022-07-09T10:03:30;1.43;;;1.33;;
15915;SDS011;8057;47.830;-3.870;2022-07-09T10:07:45;1.83;;;1.03;;
15915;SDS011;8057;47.830;-3.870;2022-07-09T10:11:54;1.20;;;1.20;;
15915;SDS011;8057;47.830;-3.870;2022-07-09T10:16:05;1.20;;;1.10;;
15915;SDS011;8057;47.830;-3.870;2022-07-09T10:20:14;2.30;;;1.60;;
15915;SDS011;8057;47.830;-3.870;2022-07-09T10:24:23;1.70;;;1.40;;
15915;SDS011;8057;47.830;-3.870;2022-07-09T10:28:39;3.47;;;2.07;;
15915;SDS011;8057;47.830;-3.870;2022-07-09T10:33:00;1.83;;;1.50;;
15915;SDS011;8057;47.830;-3.870;2022-07-09T10:37:10;1.83;;;1.73;;
15915;SDS011;8057;47.830;-3.870;2022-07-09T10:41:20;2.10;;;1.80;;
15915;SDS011;8057;47.830;-3.870;2022-07-09T10:45:35;2.07;;;1.97;;
15915;SDS011;8057;47.830;-3.870;2022-07-09T10:49:46;1.80;;;1.67;;
15915;SDS011;8057;47.830;-3.870;2022-07-09T10:53:55;2.03;;;1.80;;
15915;SDS011;8057;47.830;-3.870;2022-07-09T10:58:04;1.70;;;1.60;;
15915;SDS011;8057;47.830;-3.870;2022-07-09T11:02:18;1.70;;;1.60;;
15915;SDS011;8057;47.830;-3.870;2022-07-09T11:06:29;1.80;;;1.70;;
15915;SDS011;8057;47.830;-3.870;2022-07-09T11:10:39;2.43;;;1.90;;
15915;SDS011;8057;47.830;-3.870;2022-07-09T11:14:55;2.00;;;1.77;;
15915;SDS011;8057;47.830;-3.870;2022-07-09T11:19:12;1.60;;;1.50;;
15915;SDS011;8057;47.830;-3.870;2022-07-09T11:23:22;2.20;;;2.00;;
15915;SDS011;8057;47.830;-3.870;2022-07-09T11:27:32;1.63;;;1.53;;
15915;SDS011;8057;47.830;-3.870;2022-07-09T11:31:48;3.20;;;2.03;;
15915;SDS011;8057;47.830;-3.870;2022-07-09T11:35:58;1.80;;;1.70;;
15915;SDS011;8057;47.830;-3.870;2022-07-09T11:40:09;2.57;;;1.60;;
15915;SDS011;8057;47.830;-3.870;2022-07-09T11:44:25;2.03;;;1.70;;
15915;SDS011;8057;47.830;-3.870;2022-07-09T11:48:34;2.10;;;1.90;;
15915;SDS011;8057;47.830;-3.870;2022-07-09T11:52:44;2.07;;;1.80;;
15915;SDS011;8057;47.830;-3.870;2022-07-09T11:56:55;2.03;;;1.70;;
15915;SDS011;8057;47.830;-3.870;2022-07-09T12:01:09;1.33;;;1.23;;
15915;SDS011;8057;47.830;-3.870;2022-07-09T12:05:25;2.83;;;1.90;;
15915;SDS011;8057;47.830;-3.870;2022-07-09T12:09:36;1.83;;;1.50;;
15915;SDS011;8057;47.830;-3.870;2022-07-09T12:13:47;1.73;;;1.63;;
15915;SDS011;8057;47.830;-3.870;2022-07-09T12:17:56;1.63;;;1.47;;
15915;SDS011;8057;47.830;-3.870;2022-07-09T12:22:06;1.40;;;1.30;;
15915;SDS011;8057;47.830;-3.870;2022-07-09T12:26:14;1.83;;;1.30;;
15915;SDS011;8057;47.830;-3.870;2022-07-09T12:30:24;3.70;;;2.10;;
15915;SDS011;8057;47.830;-3.870;2022-07-09T12:34:36;1.90;;;1.80;;
15915;SDS011;8057;47.830;-3.870;2022-07-09T12:38:45;2.37;;;1.87;;
15915;SDS011;8057;47.830;-3.870;2022-07-09T12:42:54;1.93;;;1.80;;
15915;SDS011;8057;47.830;-3.870;2022-07-09T12:47:04;1.98;;;1.88;;
15915;SDS011;8057;47.830;-3.870;2022-07-09T12:51:13;1.77;;;1.67;;
15915;SDS011;8057;47.830;-3.870;2022-07-09T12:55:21;2.33;;;2.07;;
15915;SDS011;8057;47.830;-3.870;2022-07-09T12:59:30;2.00;;;1.80;;
15915;SDS011;8057;47.830;-3.870;2022-07-09T13:03:40;3.10;;;2.10;;
15915;SDS011;8057;47.830;-3.870;2022-07-09T13:08:09;1.57;;;1.43;;
15915;SDS011;8057;47.830;-3.870;2022-07-09T13:12:21;2.23;;;1.80;;
15915;SDS011;8057;47.830;-3.870;2022-07-09T13:16:30;1.90;;;1.80;;
15915;SDS011;8057;47.830;-3.870;2022-07-09T13:20:40;3.27;;;2.03;;
15915;SDS011;8057;47.830;-3.870;2022-07-09T13:24:52;1.73;;;1.63;;
15915;SDS011;8057;47.830;-3.870;2022-07-09T13:29:01;2.40;;;1.90;;
15915;SDS011;8057;47.830;-3.870;2022-07-09T13:33:10;2.03;;;1.60;;
15915;SDS011;8057;47.830;-3.870;2022-07-09T13:37:21;2.67;;;2.07;;
15915;SDS011;8057;47.830;-3.870;2022-07-09T13:41:30;1.50;;;1.40;;
15915;SDS011;8057;47.830;-3.870;2022-07-09T13:45:39;1.70;;;1.60;;
15915;SDS011;8057;47.830;-3.870;2022-07-09T13:49:48;1.97;;;1.20;;
15915;SDS011;8057;47.830;-3.870;2022-07-09T13:53:58;2.73;;;1.87;;
15915;SDS011;8057;47.830;-3.870;2022-07-09T13:58:07;1.70;;;1.60;;
15915;SDS011;8057;47.830;-3.870;2022-07-09T14:02:16;2.53;;;1.40;;
15915;SDS011;8057;47.830;-3.870;2022-07-09T14:06:26;2.47;;;1.50;;
15915;SDS011;8057;47.830;-3.870;2022-07-09T14:10:52;1.57;;;1.47;;
15915;SDS011;8057;47.830;-3.870;2022-07-09T14:15:05;2.83;;;1.60;;
15915;SDS011;8057;47.830;-3.870;2022-07-09T14:19:15;1.93;;;1.50;;
15915;SDS011;8057;47.830;-3.870;2022-07-09T14:23:25;3.00;;;1.90;;
15915;SDS011;8057;47.830;-3.870;2022-07-09T14:27:36;2.07;;;1.70;;
15915;SDS011;8057;47.830;-3.870;2022-07-09T14:31:44;1.50;;;1.40;;
15915;SDS011;8057;47.830;-3.870;2022-07-09T14:35:53;2.73;;;1.67;;
15915;SDS011;8057;47.830;-3.870;2022-07-09T14:40:02;2.78;;;1.58;;
15915;SDS011;8057;47.830;-3.870;2022-07-09T14:44:13;2.43;;;1.40;;
15915;SDS011;8057;47.830;-3.870;2022-07-09T14:48:22;1.70;;;1.47;;
15915;SDS011;8057;47.830;-3.870;2022-07-09T14:52:31;2.47;;;1.50;;
15915;SDS011;8057;47.830;-3.870;2022-07-09T14:56:40;2.22;;;1.75;;
15915;SDS011;8057;47.830;-3.870;2022-07-09T15:00:50;1.83;;;1.70;;
15915;SDS011;8057;47.830;-3.870;2022-07-09T15:04:59;1.97;;;1.50;;
15915;SDS011;8057;47.830;-3.870;2022-07-09T15:09:08;2.13;;;1.30;;
15915;SDS011;8057;47.830;-3.870;2022-07-09T15:13:17;3.67;;;1.80;;
15915;SDS011;8057;47.830;-3.870;2022-07-09T15:17:27;2.00;;;1.60;;
15915;SDS011;8057;47.830;-3.870;2022-07-09T15:21:36;2.00;;;1.60;;
15915;SDS011;8057;47.830;-3.870;2022-07-09T15:25:45;1.50;;;1.40;;
15915;SDS011;8057;47.830;-3.870;2022-07-09T15:29:53;3.33;;;1.80;;
15915;SDS011;8057;47.830;-3.870;2022-07-09T15:34:04;2.87;;;1.77;;
15915;SDS011;8057;47.830;-3.870;2022-07-09T15:38:13;1.77;;;1.50;;
15915;SDS011;8057;47.830;-3.870;2022-07-09T15:42:22;4.23;;;1.70;;
15915;SDS011;8057;47.830;-3.870;2022-07-09T15:46:31;4.30;;;1.80;;
15915;SDS011;8057;47.830;-3.870;2022-07-09T15:50:41;2.60;;;1.53;;
15915;SDS011;8057;47.830;-3.870;2022-07-09T15:54:50;1.50;;;1.40;;
15915;SDS011;8057;47.830;-3.870;2022-07-09T15:58:59;4.67;;;1.63;;
15915;SDS011;8057;47.830;-3.870;2022-07-09T16:03:07;1.60;;;1.50;;
15915;SDS011;8057;47.830;-3.870;2022-07-09T16:07:17;1.73;;;1.53;;
15915;SDS011;8057;47.830;-3.870;2022-07-09T16:11:26;1.60;;;1.50;;
15915;SDS011;8057;47.830;-3.870;2022-07-09T16:15:54;1.73;;;1.63;;
15915;SDS011;8057;47.830;-3.870;2022-07-09T16:20:03;1.80;;;1.70;;
15915;SDS011;8057;47.830;-3.870;2022-07-09T16:24:14;3.23;;;1.67;;
15915;SDS011;8057;47.830;-3.870;2022-07-09T16:28:22;3.30;;;1.63;;
15915;SDS011;8057;47.830;-3.870;2022-07-09T16:32:31;1.37;;;1.27;;
15915;SDS011;8057;47.830;-3.870;2022-07-09T16:36:40;1.40;;;0.90;;
15915;SDS011;8057;47.830;-3.870;2022-07-09T16:40:51;2.65;;;1.63;;
15915;SDS011;8057;47.830;-3.870;2022-07-09T16:45:00;1.35;;;0.90;;
15915;SDS011;8057;47.830;-3.870;2022-07-09T16:49:08;1.13;;;1.00;;
15915;SDS011;8057;47.830;-3.870;2022-07-09T16:53:17;2.47;;;1.02;;
15915;SDS011;8057;47.830;-3.870;2022-07-09T16:57:28;1.38;;;0.90;;
15915;SDS011;8057;47.830;-3.870;2022-07-09T17:01:37;0.93;;;0.93;;
15915;SDS011;8057;47.830;-3.870;2022-07-09T17:05:45;2.72;;;1.20;;
15915;SDS011;8057;47.830;-3.870;2022-07-09T17:09:54;2.67;;;1.23;;
15915;SDS011;8057;47.830;-3.870;2022-07-09T17:14:04;2.55;;;1.23;;
15915;SDS011;8057;47.830;-3.870;2022-07-09T17:18:14;2.05;;;1.27;;
15915;SDS011;8057;47.830;-3.870;2022-07-09T17:22:23;1.13;;;0.98;;
15915;SDS011;8057;47.830;-3.870;2022-07-09T17:26:32;1.60;;;1.50;;
15915;SDS011;8057;47.830;-3.870;2022-07-09T17:30:42;1.67;;;1.20;;
15915;SDS011;8057;47.830;-3.870;2022-07-09T17:34:51;1.27;;;1.27;;
15915;SDS011;8057;47.830;-3.870;2022-07-09T17:39:00;1.30;;;1.20;;
15915;SDS011;8057;47.830;-3.870;2022-07-09T17:43:09;1.60;;;1.40;;
15915;SDS011;8057;47.830;-3.870;2022-07-09T17:47:19;1.83;;;1.40;;
15915;SDS011;8057;47.830;-3.870;2022-07-09T17:51:28;2.30;;;1.30;;
15915;SDS011;8057;47.830;-3.870;2022-07-09T17:55:37;2.50;;;1.57;;
15915;SDS011;8057;47.830;-3.870;2022-07-09T17:59:45;1.63;;;1.50;;
15915;SDS011;8057;47.830;-3.870;2022-07-09T18:03:56;1.50;;;1.30;;
15915;SDS011;8057;47.830;-3.870;2022-07-09T18:08:04;2.00;;;1.27;;
15915;SDS011;8057;47.830;-3.870;2022-07-09T18:12:13;1.60;;;1.50;;
15915;SDS011;8057;47.830;-3.870;2022-07-09T18:16:22;1.73;;;1.63;;
15915;SDS011;8057;47.830;-3.870;2022-07-09T18:20:32;1.90;;;1.27;;
15915;SDS011;8057;47.830;-3.870;2022-07-09T18:24:41;1.50;;;1.30;;
15915;SDS011;8057;47.830;-3.870;2022-07-09T18:28:50;1.73;;;1.60;;
15915;SDS011;8057;47.830;-3.870;2022-07-09T18:32:59;2.37;;;1.60;;
15915;SDS011;8057;47.830;-3.870;2022-07-09T18:37:09;1.50;;;1.40;;
15915;SDS011;8057;47.830;-3.870;2022-07-09T18:41:18;1.40;;;1.30;;
15915;SDS011;8057;47.830;-3.870;2022-07-09T18:45:27;2.13;;;1.63;;
15915;SDS011;8057;47.830;-3.870;2022-07-09T18:49:36;1.50;;;1.40;;
15915;SDS011;8057;47.830;-3.870;2022-07-09T18:53:46;3.60;;;1.67;;
15915;SDS011;8057;47.830;-3.870;2022-07-09T18:57:55;1.90;;;1.70;;
15915;SDS011;8057;47.830;-3.870;2022-07-09T19:02:06;2.93;;;1.80;;
15915;SDS011;8057;47.830;-3.870;2022-07-09T19:06:15;3.43;;;1.80;;
15915;SDS011;8057;47.830;-3.870;2022-07-09T19:10:25;1.97;;;1.60;;
15915;SDS011;8057;47.830;-3.870;2022-07-09T19:14:34;1.50;;;1.40;;
15915;SDS011;8057;47.830;-3.870;2022-07-09T19:18:42;1.73;;;1.63;;
15915;SDS011;8057;47.830;-3.870;2022-07-09T19:22:51;1.77;;;1.30;;
15915;SDS011;8057;47.830;-3.870;2022-07-09T19:27:01;1.80;;;1.70;;
15915;SDS011;8057;47.830;-3.870;2022-07-09T19:31:11;1.63;;;1.53;;
15915;SDS011;8057;47.830;-3.870;2022-07-09T19:35:37;4.07;;;1.80;;
15915;SDS011;8057;47.830;-3.870;2022-07-09T19:39:46;1.67;;;1.57;;
15915;SDS011;8057;47.830;-3.870;2022-07-09T19:43:56;2.00;;;1.80;;
15915;SDS011;8057;47.830;-3.870;2022-07-09T19:48:05;2.07;;;1.67;;
15915;SDS011;8057;47.830;-3.870;2022-07-09T19:52:14;1.50;;;1.40;;
15915;SDS011;8057;47.830;-3.870;2022-07-09T19:56:23;1.90;;;1.70;;
15915;SDS011;8057;47.830;-3.870;2022-07-09T20:00:39;2.77;;;1.80;;
15915;SDS011;8057;47.830;-3.870;2022-07-09T20:04:48;2.53;;;1.73;;
15915;SDS011;8057;47.830;-3.870;2022-07-09T20:08:57;2.10;;;2.00;;
15915;SDS011;8057;47.830;-3.870;2022-07-09T20:13:06;2.57;;;1.87;;
15915;SDS011;8057;47.830;-3.870;2022-07-09T20:17:16;2.83;;;2.13;;
15915;SDS011;8057;47.830;-3.870;2022-07-09T20:21:24;2.60;;;1.77;;
15915;SDS011;8057;47.830;-3.870;2022-07-09T20:25:34;2.00;;;1.90;;
15915;SDS011;8057;47.830;-3.870;2022-07-09T20:29:43;2.13;;;1.70;;
15915;SDS011;8057;47.830;-3.870;2022-07-09T20:33:53;2.20;;;2.00;;
15915;SDS011;8057;47.830;-3.870;2022-07-09T20:38:02;2.53;;;2.03;;
15915;SDS011;8057;47.830;-3.870;2022-07-09T20:42:11;3.00;;;2.03;;
15915;SDS011;8057;47.830;-3.870;2022-07-09T20:46:20;2.73;;;2.10;;
15915;SDS011;8057;47.830;-3.870;2022-07-09T20:50:31;2.47;;;1.80;;
15915;SDS011;8057;47.830;-3.870;2022-07-09T20:54:40;2.53;;;2.00;;
15915;SDS011;8057;47.830;-3.870;2022-07-09T20:58:48;2.20;;;2.00;;
15915;SDS011;8057;47.830;-3.870;2022-07-09T21:02:57;2.10;;;1.93;;
15915;SDS011;8057;47.830;-3.870;2022-07-09T21:07:07;2.07;;;1.90;;
15915;SDS011;8057;47.830;-3.870;2022-07-09T21:11:16;2.27;;;1.90;;
15915;SDS011;8057;47.830;-3.870;2022-07-09T21:15:25;2.33;;;2.23;;
15915;SDS011;8057;47.830;-3.870;2022-07-09T21:19:34;1.87;;;1.77;;
15915;SDS011;8057;47.830;-3.870;2022-07-09T21:23:44;3.03;;;1.83;;
15915;SDS011;8057;47.830;-3.870;2022-07-09T21:27:53;2.10;;;2.00;;
15915;SDS011;8057;47.830;-3.870;2022-07-09T21:32:02;2.40;;;2.00;;
15915;SDS011;8057;47.830;-3.870;2022-07-09T21:36:11;3.90;;;2.20;;
15915;SDS011;8057;47.830;-3.870;2022-07-09T21:40:22;2.20;;;2.00;;
15915;SDS011;8057;47.830;-3.870;2022-07-09T21:44:31;2.27;;;1.80;;
15915;SDS011;8057;47.830;-3.870;2022-07-09T21:48:40;1.93;;;1.83;;
15915;SDS011;8057;47.830;-3.870;2022-07-09T21:52:48;1.77;;;1.67;;
15915;SDS011;8057;47.830;-3.870;2022-07-09T21:56:58;1.90;;;1.80;;
15915;SDS011;8057;47.830;-3.870;2022-07-09T22:01:07;2.03;;;1.93;;
15915;SDS011;8057;47.830;-3.870;2022-07-09T22:05:16;2.07;;;1.83;;
15915;SDS011;8057;47.830;-3.870;2022-07-09T22:09:25;4.27;;;1.93;;
15915;SDS011;8057;47.830;-3.870;2022-07-09T22:13:35;2.27;;;1.80;;
15915;SDS011;8057;47.830;-3.870;2022-07-09T22:17:44;3.07;;;1.70;;
15915;SDS011;8057;47.830;-3.870;2022-07-09T22:21:53;8.73;;;1.87;;
15915;SDS011;8057;47.830;-3.870;2022-07-09T22:26:03;1.83;;;1.50;;
15915;SDS011;8057;47.830;-3.870;2022-07-09T22:30:14;1.67;;;1.50;;
15915;SDS011;8057;47.830;-3.870;2022-07-09T22:34:25;1.90;;;1.70;;
15915;SDS011;8057;47.830;-3.870;2022-07-09T22:38:34;1.70;;;1.60;;
15915;SDS011;8057;47.830;-3.870;2022-07-09T22:42:43;1.60;;;1.50;;
15915;SDS011;8057;47.830;-3.870;2022-07-09T22:46:54;1.87;;;1.70;;
15915;SDS011;8057;47.830;-3.870;2022-07-09T22:51:02;1.93;;;1.60;;
15915;SDS011;8057;47.830;-3.870;2022-07-09T22:55:12;1.87;;;1.63;;
15915;SDS011;8057;47.830;-3.870;2022-07-09T22:59:21;2.33;;;1.63;;
15915;SDS011;8057;47.830;-3.870;2022-07-09T23:03:32;2.03;;;1.83;;
15915;SDS011;8057;47.830;-3.870;2022-07-09T23:07:41;3.27;;;1.30;;
15915;SDS011;8057;47.830;-3.870;2022-07-09T23:12:07;1.67;;;1.40;;
15915;SDS011;8057;47.830;-3.870;2022-07-09T23:16:16;2.13;;;1.40;;
15915;SDS011;8057;47.830;-3.870;2022-07-09T23:20:27;2.13;;;1.33;;
15915;SDS011;8057;47.830;-3.870;2022-07-09T23:24:36;1.50;;;1.40;;
15915;SDS011;8057;47.830;-3.870;2022-07-09T23:28:45;2.90;;;1.30;;
15915;SDS011;8057;47.830;-3.870;2022-07-09T23:32:54;1.83;;;1.73;;
15915;SDS011;8057;47.830;-3.870;2022-07-09T23:37:05;1.70;;;1.60;;
15915;SDS011;8057;47.830;-3.870;2022-07-09T23:41:14;1.40;;;1.30;;
15915;SDS011;8057;47.830;-3.870;2022-07-09T23:45:23;2.13;;;1.73;;
15915;SDS011;8057;47.830;-3.870;2022-07-09T23:49:32;2.00;;;1.67;;
15915;SDS011;8057;47.830;-3.870;2022-07-09T23:53:42;1.90;;;1.70;;
15915;SDS011;8057;47.830;-3.870;2022-07-09T23:57:51;2.00;;;1.90;;
